Terminal Aerodrome Forecast
Issued by NWS

Home | Current Version | Previous Version | Graphics & Text | Print | Product List | Glossary On
Versions: 1 2 3 4 5 6 7 8 9 10 11 12 13 14
000
FTUS43 KMPX 102340
TAFRWF
TAF
KRWF 102340Z 1100/1124 31005KT P6SM OVC090
     FM110200 23004KT P6SM BKN110
     FM111100 27008KT P6SM BKN110
     FM111500 31014G23KT P6SM VCSH OVC025
     FM111900 33018G27KT P6SM BKN025=

USA.gov is the U.S. government's official web portal to all federal, state and local government web resources and services.